Time;durP1;ratioP1;P1;durP2;ratioP2;P2;SDS_P1;SDS_P2;PMS_P1;PMS_P2;Temp;Humidity;BMP_temperature;BMP_pressure;BME280_temperature;BME280_humidity;BME280_pressure;Samples;Min_cycle;Max_cycle;Signal;HPM_P1;HPM_P2
2021/01/07 00:01:22;;;;;;;;;;;;;;;-0.92;100.00;100276.00;5075975;28;19925;-73
2021/01/07 00:03:48;;;;;;;;;;;;;;;-0.84;100.00;100277.97;5075204;28;19928;-73
2021/01/07 00:06:15;;;;;;;;;;;;;;;-1.04;100.00;100270.31;5075998;28;19971;-73
2021/01/07 00:08:42;;;;;;;;;;;;;;;-0.92;100.00;100278.75;5076199;28;19924;-73
2021/01/07 00:11:09;;;;;;;;;;;;;;;-0.85;100.00;100273.63;5091485;28;20005;-73
2021/01/07 00:13:36;;;;;;;;;;;;;;;-0.73;100.00;100277.38;5075937;28;20385;-73
2021/01/07 00:16:03;;;;;;;;;;;;;;;-0.66;100.00;100285.94;5041153;28;19924;-73
2021/01/07 00:18:29;;;;;;;;;;;;;;;-0.65;100.00;100289.50;5091328;28;19931;-73
2021/01/07 00:20:55;;;;;;;;;;;;;;;-0.66;100.00;100290.59;5075803;28;19925;-73
2021/01/07 00:23:22;;;;;;;;;;;;;;;-0.21;100.00;100294.69;5075787;28;20367;-73
2021/01/07 00:25:52;;;;;;;;;;;;;;;-0.38;100.00;100283.72;5058109;28;19950;-73
2021/01/07 00:28:19;;;;;;;;;;;;;;;0.03;100.00;100298.56;5075672;28;19932;-73
2021/01/07 00:30:46;;;;;;;;;;;;;;;0.17;100.00;100305.84;5075330;28;19928;-73
2021/01/07 00:33:13;;;;;;;;;;;;;;;-0.19;100.00;100281.44;5057688;28;19925;-73
2021/01/07 00:35:39;;;;;;;;;;;;;;;-0.42;100.00;100274.50;5057786;28;19924;-73
2021/01/07 00:38:06;;;;;;;;;;;;;;;-0.66;100.00;100254.91;5075670;28;20271;-73
2021/01/07 00:40:34;;;;;;;;;;;;;;;-0.73;100.00;100238.13;5057616;28;20040;-73
2021/01/07 00:43:02;;;;;;;;;;;;;;;-0.81;100.00;100230.69;5075411;28;20002;-73
2021/01/07 00:45:29;;;;;;;;;;;;;;;-0.90;100.00;100222.44;5074944;28;20394;-73
2021/01/07 00:47:55;;;;;;;;;;;;;;;-0.93;100.00;100222.28;5057160;28;19924;-73
2021/01/07 00:50:23;;;;;;;;;;;;;;;-0.94;100.00;100220.66;5057513;28;20005;-73
2021/01/07 00:52:50;;;;;;;;;;;;;;;-0.94;100.00;100206.94;5057347;28;19925;-73
2021/01/07 00:55:17;;;;;;;;;;;;;;;-1.21;100.00;100209.94;5074873;28;19995;-73
2021/01/07 00:57:48;;;;;;;;;;;;;;;-1.35;100.00;100198.28;5056922;28;20383;-73
2021/01/07 01:00:16;;;;;;;;;;;;;;;-1.52;100.00;100192.75;5075902;28;19945;-73
2021/01/07 01:02:42;;;;;;;;;;;;;;;-1.58;100.00;100186.59;5094232;28;20343;-73
2021/01/07 01:05:09;;;;;;;;;;;;;;;-1.56;100.00;100186.28;5094164;28;19924;-73
2021/01/07 01:07:35;;;;;;;;;;;;;;;-1.61;100.00;100186.41;5094336;28;20430;-73
2021/01/07 01:10:05;;;;;;;;;;;;;;;-1.73;100.00;100170.59;5094453;28;19931;-73
2021/01/07 01:12:31;;;;;;;;;;;;;;;-1.86;100.00;100183.25;5093090;28;19925;-73
2021/01/07 01:14:58;;;;;;;;;;;;;;;-1.77;100.00;100180.53;5093130;28;20015;-73
2021/01/07 01:17:24;;;;;;;;;;;;;;;-1.80;100.00;100180.38;5093639;28;19930;-73
2021/01/07 01:19:51;;;;;;;;;;;;;;;-1.90;100.00;100168.56;5093631;28;19977;-73
2021/01/07 01:22:17;;;;;;;;;;;;;;;-1.99;100.00;100172.38;5095036;28;19924;-73
2021/01/07 01:24:44;;;;;;;;;;;;;;;-2.13;100.00;100166.19;5093762;28;20374;-73
2021/01/07 01:27:10;;;;;;;;;;;;;;;-2.10;100.00;100166.38;5094879;28;19924;-73
2021/01/07 01:29:37;;;;;;;;;;;;;;;-2.13;100.00;100167.00;5094556;28;19924;-73
2021/01/07 01:32:03;;;;;;;;;;;;;;;-2.17;100.00;100165.19;5095121;28;19924;-73
2021/01/07 01:34:29;;;;;;;;;;;;;;;-2.20;100.00;100163.91;5094902;28;20313;-73
2021/01/07 01:36:56;;;;;;;;;;;;;;;-2.33;100.00;100162.03;5094918;28;19924;-73
2021/01/07 01:39:22;;;;;;;;;;;;;;;-2.34;100.00;100165.06;5094793;28;19924;-73
2021/01/07 01:41:49;;;;;;;;;;;;;;;-2.40;100.00;100161.66;5094569;28;19932;-73
2021/01/07 01:44:16;;;;;;;;;;;;;;;-2.51;100.00;100154.81;5095093;28;19977;-73
2021/01/07 01:46:43;;;;;;;;;;;;;;;-2.53;100.00;100159.78;5093328;28;19924;-73
2021/01/07 01:49:12;;;;;;;;;;;;;;;-2.51;100.00;100149.34;5094645;28;19928;-73
2021/01/07 01:51:38;;;;;;;;;;;;;;;-2.49;100.00;100147.13;5094695;28;20007;-73
2021/01/07 01:54:06;;;;;;;;;;;;;;;-2.51;100.00;100160.28;5094590;28;19932;-73
2021/01/07 01:56:33;;;;;;;;;;;;;;;-2.62;100.00;100145.25;5094070;28;19924;-73
2021/01/07 01:58:59;;;;;;;;;;;;;;;-2.67;100.00;100139.91;5094524;28;19928;-74
2021/01/07 02:01:26;;;;;;;;;;;;;;;-2.61;100.00;100146.06;5094551;28;19924;-73
2021/01/07 02:03:53;;;;;;;;;;;;;;;-2.73;100.00;100146.63;5127287;27;20019;-73
2021/01/07 02:06:21;;;;;;;;;;;;;;;-2.77;100.00;100148.34;5094319;28;19993;-73
2021/01/07 02:08:49;;;;;;;;;;;;;;;-2.79;100.00;100153.34;5094327;28;19928;-73
2021/01/07 02:11:16;;;;;;;;;;;;;;;-2.83;100.00;100146.84;5092654;28;19978;-73
2021/01/07 02:13:43;;;;;;;;;;;;;;;-2.80;100.00;100145.44;5094216;28;19931;-73
2021/01/07 02:16:10;;;;;;;;;;;;;;;-2.83;100.00;100149.59;5094259;28;19924;-72
2021/01/07 02:18:37;;;;;;;;;;;;;;;-2.87;100.00;100148.59;5094005;28;19931;-73
2021/01/07 02:21:04;;;;;;;;;;;;;;;-2.98;100.00;100144.47;5126914;27;19924;-73
2021/01/07 02:23:30;;;;;;;;;;;;;;;-2.80;100.00;100157.16;5094109;28;19924;-73
2021/01/07 02:25:57;;;;;;;;;;;;;;;-2.96;100.00;100147.72;5093299;28;19977;-73
2021/01/07 02:28:23;;;;;;;;;;;;;;;-3.19;100.00;100132.38;5093989;28;20359;-73
2021/01/07 02:30:50;;;;;;;;;;;;;;;-3.12;100.00;100130.03;5094160;28;19931;-72
2021/01/07 02:33:17;;;;;;;;;;;;;;;-3.10;100.00;100129.72;5093957;28;19924;-72
2021/01/07 02:35:43;;;;;;;;;;;;;;;-3.05;100.00;100138.63;5092711;28;19924;-73
2021/01/07 02:38:09;;;;;;;;;;;;;;;-3.08;100.00;100133.78;5093842;28;19924;-73
2021/01/07 02:40:36;;;;;;;;;;;;;;;-3.12;100.00;100127.28;5093879;28;19924;-73
2021/01/07 02:43:03;;;;;;;;;;;;;;;-2.96;100.00;100141.44;5093952;28;19993;-73
2021/01/07 02:45:30;;;;;;;;;;;;;;;-3.00;100.00;100134.97;5093758;28;19924;-73
2021/01/07 02:47:56;;;;;;;;;;;;;;;-3.21;100.00;100123.66;5093781;28;19924;-73
2021/01/07 02:50:23;;;;;;;;;;;;;;;-3.20;100.00;100125.31;5126722;28;19925;-73
2021/01/07 02:52:49;;;;;;;;;;;;;;;-3.22;100.00;100123.97;5093774;28;20015;-73
2021/01/07 02:55:16;;;;;;;;;;;;;;;-3.13;100.00;100131.16;5093676;28;19930;-73
2021/01/07 02:57:42;;;;;;;;;;;;;;;-2.96;100.00;100139.50;5093675;28;19924;-73
2021/01/07 03:00:09;;;;;;;;;;;;;;;-3.07;100.00;100132.66;5092547;28;19924;-72
2021/01/07 03:02:36;;;;;;;;;;;;;;;-2.92;100.00;100142.44;5093662;28;19924;-72
2021/01/07 03:05:02;;;;;;;;;;;;;;;-2.93;100.00;100129.88;5093950;28;19924;-73
2021/01/07 03:07:29;;;;;;;;;;;;;;;-3.08;100.00;100117.38;5093499;28;20280;-73
2021/01/07 03:09:55;;;;;;;;;;;;;;;-2.87;100.00;100123.97;5093504;28;19928;-73
2021/01/07 03:12:21;;;;;;;;;;;;;;;-2.91;100.00;100128.47;5092342;28;19924;-72
2021/01/07 03:14:48;;;;;;;;;;;;;;;-2.91;100.00;100125.72;5093575;28;19962;-73
2021/01/07 03:17:14;;;;;;;;;;;;;;;-2.88;100.00;100125.09;5093509;28;19928;-72
2021/01/07 03:19:41;;;;;;;;;;;;;;;-2.75;100.00;100126.16;5109103;28;20397;-73
2021/01/07 03:22:08;;;;;;;;;;;;;;;-2.81;100.00;100117.28;5092189;28;19924;-74
2021/01/07 03:24:36;;;;;;;;;;;;;;;-2.70;100.00;100139.72;5091941;28;19931;-72
2021/01/07 03:27:02;;;;;;;;;;;;;;;-2.79;100.00;100131.44;5093538;28;19966;-73
2021/01/07 03:29:29;;;;;;;;;;;;;;;-2.93;100.00;100125.22;5093259;28;20547;-72
2021/01/07 03:31:56;;;;;;;;;;;;;;;-2.98;100.00;100113.56;5093343;28;19924;-73
2021/01/07 03:34:23;;;;;;;;;;;;;;;-2.87;100.00;100123.97;5093332;28;19924;-72
2021/01/07 03:36:49;;;;;;;;;;;;;;;-2.85;100.00;100121.75;5093563;28;19932;-72
2021/01/07 03:39:17;;;;;;;;;;;;;;;-2.82;100.00;100117.56;5095873;28;19924;-73
2021/01/07 03:41:43;;;;;;;;;;;;;;;-2.72;100.00;100120.88;5095871;28;20380;-72
2021/01/07 03:44:10;;;;;;;;;;;;;;;-2.76;100.00;100119.88;5096851;28;19924;-72
2021/01/07 03:46:37;;;;;;;;;;;;;;;-2.85;100.00;100113.53;5095442;28;20019;-72
2021/01/07 03:49:04;;;;;;;;;;;;;;;-2.95;100.00;100105.56;5096594;28;19966;-73
2021/01/07 03:51:30;;;;;;;;;;;;;;;-3.06;100.00;100087.78;5096776;28;19924;-73
2021/01/07 03:53:57;;;;;;;;;;;;;;;-3.11;100.00;100098.84;5095260;28;19932;-72
2021/01/07 03:56:24;;;;;;;;;;;;;;;-2.99;100.00;100092.81;5096655;28;20392;-73
2021/01/07 03:58:51;;;;;;;;;;;;;;;-3.05;100.00;100089.41;5095246;28;20301;-73
2021/01/07 04:01:19;;;;;;;;;;;;;;;-2.96;100.00;100093.03;5096301;28;19924;-73
2021/01/07 04:03:46;;;;;;;;;;;;;;;-2.89;100.00;100093.38;5095232;28;19974;-73
2021/01/07 04:06:12;;;;;;;;;;;;;;;-3.17;100.00;100075.47;5095171;28;19924;-73
2021/01/07 04:08:39;;;;;;;;;;;;;;;-3.07;100.00;100082.63;5094805;28;19924;-74
2021/01/07 04:11:06;;;;;;;;;;;;;;;-2.94;100.00;100085.28;5095117;28;19924;-73
2021/01/07 04:13:32;;;;;;;;;;;;;;;-2.68;100.00;100089.03;5096226;28;19924;-73
2021/01/07 04:15:59;;;;;;;;;;;;;;;-2.42;100.00;100103.69;5096244;28;19930;-72
2021/01/07 04:18:25;;;;;;;;;;;;;;;-2.14;100.00;100116.09;5095871;28;19924;-73
2021/01/07 04:20:53;;;;;;;;;;;;;;;-1.86;100.00;100125.72;5096097;28;19931;-73
2021/01/07 04:23:19;;;;;;;;;;;;;;;-2.15;100.00;100108.97;5095808;28;19931;-72
2021/01/07 04:25:46;;;;;;;;;;;;;;;-2.22;100.00;100108.63;5096002;28;19925;-73
2021/01/07 04:28:16;;;;;;;;;;;;;;;-2.13;100.00;100101.28;5095968;28;20014;-73
2021/01/07 04:30:43;;;;;;;;;;;;;;;-1.80;100.00;100120.09;5094497;28;19974;-72
2021/01/07 04:33:10;;;;;;;;;;;;;;;-2.22;100.00;100100.41;5094660;28;19973;-73
2021/01/07 04:35:36;;;;;;;;;;;;;;;-2.35;100.00;100104.03;5095961;28;20337;-73
2021/01/07 04:38:03;;;;;;;;;;;;;;;-2.04;100.00;100121.28;5094261;28;19931;-73
2021/01/07 04:40:29;;;;;;;;;;;;;;;-1.99;100.00;100115.69;5095700;28;19930;-73
2021/01/07 04:42:56;;;;;;;;;;;;;;;-2.00;100.00;100107.78;5094494;28;19925;-73
2021/01/07 04:45:23;;;;;;;;;;;;;;;-2.38;100.00;100098.41;5095498;28;19924;-73
2021/01/07 04:47:49;;;;;;;;;;;;;;;-2.66;100.00;100086.78;5095709;28;19924;-72
2021/01/07 04:50:17;;;;;;;;;;;;;;;-2.80;100.00;100080.56;5094919;28;19924;-73
2021/01/07 04:52:43;;;;;;;;;;;;;;;-2.81;100.00;100072.69;5094265;28;19924;-72
2021/01/07 04:55:11;;;;;;;;;;;;;;;-2.92;100.00;100069.38;5095416;28;19932;-73
2021/01/07 04:57:37;;;;;;;;;;;;;;;-2.83;100.00;100070.25;5095420;28;19970;-72
2021/01/07 05:00:08;;;;;;;;;;;;;;;-2.45;100.00;100079.69;5095269;28;19971;-72
2021/01/07 05:02:35;;;;;;;;;;;;;;;-2.36;100.00;100090.66;5095220;28;19924;-72
2021/01/07 05:05:05;;;;;;;;;;;;;;;-2.69;100.00;100073.75;5094942;28;19930;-72
2021/01/07 05:07:35;;;;;;;;;;;;;;;-2.59;100.00;100069.94;5095226;28;19924;-73
2021/01/07 05:10:04;;;;;;;;;;;;;;;-2.48;100.00;100076.75;5095032;28;19924;-72
2021/01/07 05:12:31;;;;;;;;;;;;;;;-2.71;100.00;100056.81;5094988;28;19924;-72
2021/01/07 05:14:58;;;;;;;;;;;;;;;-2.69;100.00;100068.28;5093854;28;19924;-73
2021/01/07 05:17:24;;;;;;;;;;;;;;;-2.84;100.00;100057.72;5093940;28;19931;-72
2021/01/07 05:19:50;;;;;;;;;;;;;;;-3.16;100.00;100036.06;5094433;28;19924;-73
2021/01/07 05:22:17;;;;;;;;;;;;;;;-3.07;100.00;100041.59;5094956;28;19924;-72
2021/01/07 05:24:44;;;;;;;;;;;;;;;-3.09;100.00;100039.19;5093689;28;19928;-73
2021/01/07 05:27:11;;;;;;;;;;;;;;;-3.18;100.00;100032.84;5093491;28;19930;-72
2021/01/07 05:29:38;;;;;;;;;;;;;;;-3.22;100.00;100031.84;5094685;28;20006;-72
2021/01/07 05:32:08;;;;;;;;;;;;;;;-3.21;100.00;100024.47;5093516;28;19932;-72
2021/01/07 05:34:48;;;;;;;;;;;;;;;-3.14;100.00;100031.13;5094342;28;19928;-73
2021/01/07 05:37:16;;;;;;;;;;;;;;;-3.09;100.00;100028.25;5094608;28;19986;-72
2021/01/07 05:39:49;;;;;;;;;;;;;;;-3.44;100.00;100014.63;5093176;28;19970;-72
2021/01/07 05:42:16;;;;;;;;;;;;;;;-3.41;100.00;100024.94;5093198;28;19935;-72
2021/01/07 05:44:49;;;;;;;;;;;;;;;-3.26;100.00;100028.13;5094469;28;19924;-73
2021/01/07 05:47:27;;;;;;;;;;;;;;;-3.04;100.00;100041.78;5094153;28;20314;-73
2021/01/07 05:49:57;;;;;;;;;;;;;;;-2.97;100.00;100042.16;5092690;28;19939;-73
2021/01/07 05:52:28;;;;;;;;;;;;;;;-2.86;100.00;100049.00;5094392;28;19924;-73
2021/01/07 05:54:54;;;;;;;;;;;;;;;-2.76;100.00;100046.03;5093228;28;19970;-73
2021/01/07 05:57:22;;;;;;;;;;;;;;;-2.73;100.00;100048.13;5094316;28;19924;-73
2021/01/07 05:59:48;;;;;;;;;;;;;;;-2.74;100.00;100046.50;5094332;28;20295;-73
2021/01/07 06:02:17;;;;;;;;;;;;;;;-2.64;100.00;100039.97;5093620;28;19928;-73
2021/01/07 06:04:44;;;;;;;;;;;;;;;-2.34;100.00;100045.44;5094032;28;19924;-73
2021/01/07 06:07:11;;;;;;;;;;;;;;;-2.28;100.00;100054.31;5094121;28;20260;-72
2021/01/07 06:09:39;;;;;;;;;;;;;;;-2.08;100.00;100054.59;5092935;28;20005;-73
2021/01/07 06:12:07;;;;;;;;;;;;;;;-1.90;100.00;100064.47;5092859;28;19928;-72
2021/01/07 06:14:33;;;;;;;;;;;;;;;-1.77;100.00;100061.94;5094082;28;19924;-72
2021/01/07 06:17:00;;;;;;;;;;;;;;;-1.76;100.00;100053.38;5092870;28;19924;-72
2021/01/07 06:19:30;;;;;;;;;;;;;;;-1.68;100.00;100052.56;5092328;28;19924;-73
2021/01/07 06:22:00;;;;;;;;;;;;;;;-1.52;100.00;100055.69;5092949;28;19924;-73
2021/01/07 06:24:29;;;;;;;;;;;;;;;-1.38;100.00;100045.38;5094110;28;19931;-72
2021/01/07 06:26:56;;;;;;;;;;;;;;;-1.13;100.00;100055.53;5075900;28;20383;-73
2021/01/07 06:29:22;;;;;;;;;;;;;;;-0.88;100.00;100069.25;5092857;28;20293;-72
2021/01/07 06:31:53;;;;;;;;;;;;;;;-0.94;100.00;100061.53;5092427;28;20264;-72
2021/01/07 06:34:25;;;;;;;;;;;;;;;-1.16;100.00;100054.25;5094079;28;20420;-73
2021/01/07 06:36:52;;;;;;;;;;;;;;;-1.16;100.00;100056.19;5094116;28;19923;-72
2021/01/07 06:39:22;;;;;;;;;;;;;;;-1.20;100.00;100060.72;5093827;28;19974;-73
2021/01/07 06:41:53;;;;;;;;;;;;;;;-1.36;100.00;100043.94;5092741;28;20390;-73
2021/01/07 06:44:20;;;;;;;;;;;;;;;-1.40;100.00;100042.97;5093912;28;20359;-73
2021/01/07 06:46:48;;;;;;;;;;;;;;;-1.39;100.00;100046.53;5093543;28;19978;-73
2021/01/07 06:49:15;;;;;;;;;;;;;;;-1.29;100.00;100043.47;5092642;28;19924;-72
2021/01/07 06:51:47;;;;;;;;;;;;;;;-1.32;100.00;100049.59;5093787;28;19924;-72
2021/01/07 06:54:15;;;;;;;;;;;;;;;-1.30;100.00;100047.34;5092702;28;20263;-72
2021/01/07 06:56:41;;;;;;;;;;;;;;;-1.32;100.00;100041.34;5093663;28;19959;-72
2021/01/07 06:59:12;;;;;;;;;;;;;;;-1.38;100.00;100043.47;5092509;28;19986;-73
2021/01/07 07:01:46;;;;;;;;;;;;;;;-1.41;100.00;100030.41;5093380;28;20404;-72
2021/01/07 07:04:22;;;;;;;;;;;;;;;-1.41;100.00;100035.88;5092605;28;20282;-73
2021/01/07 07:06:55;;;;;;;;;;;;;;;-1.28;100.00;100039.56;5093667;28;20367;-73
2021/01/07 07:09:24;;;;;;;;;;;;;;;-1.20;100.00;100041.53;5092607;28;19924;-73
2021/01/07 07:11:58;;;;;;;;;;;;;;;-1.12;100.00;100037.97;5093121;28;20363;-73
2021/01/07 07:14:27;;;;;;;;;;;;;;;-1.18;100.00;100042.81;5097499;28;20390;-72
2021/01/07 07:16:56;;;;;;;;;;;;;;;-1.16;100.00;100037.81;5097101;28;20330;-73
2021/01/07 07:19:23;;;;;;;;;;;;;;;-1.24;100.00;100035.88;5097084;28;20367;-73
2021/01/07 07:22:00;;;;;;;;;;;;;;;-1.26;100.00;100042.81;5096210;28;20314;-73
2021/01/07 07:24:53;;;;;;;;;;;;;;;-1.37;100.00;100028.63;5097174;28;20275;-73
2021/01/07 07:27:20;;;;;;;;;;;;;;;-1.56;100.00;100016.34;5095832;28;19924;-72
2021/01/07 07:29:48;;;;;;;;;;;;;;;-1.57;100.00;100011.97;5096850;28;19924;-73
2021/01/07 07:32:21;;;;;;;;;;;;;;;-1.43;100.00;100021.69;5095766;28;20395;-72
2021/01/07 07:34:49;;;;;;;;;;;;;;;-1.27;100.00;100032.97;5095829;28;20307;-73
2021/01/07 07:37:20;;;;;;;;;;;;;;;-1.30;100.00;100031.66;5095758;28;19950;-72
2021/01/07 07:39:48;;;;;;;;;;;;;;;-1.28;100.00;100032.16;5096695;28;19939;-73
2021/01/07 07:42:15;;;;;;;;;;;;;;;-1.22;100.00;100038.28;5096786;28;19924;-73
2021/01/07 07:44:42;;;;;;;;;;;;;;;-1.16;100.00;100045.22;5096461;28;20275;-73
2021/01/07 07:47:09;;;;;;;;;;;;;;;-1.09;100.00;100048.31;5096666;28;20015;-73
2021/01/07 07:49:36;;;;;;;;;;;;;;;-0.83;100.00;100063.59;5095550;28;19928;-73
2021/01/07 07:52:02;;;;;;;;;;;;;;;-0.65;100.00;100080.88;5096570;28;19930;-73
2021/01/07 07:54:29;;;;;;;;;;;;;;;-0.58;100.00;100081.19;5095446;28;19931;-73
2021/01/07 07:56:59;;;;;;;;;;;;;;;-0.62;100.00;100081.00;5096473;28;19928;-74
2021/01/07 07:59:30;;;;;;;;;;;;;;;-0.53;100.00;100089.25;5096157;28;19924;-73
2021/01/07 08:01:57;;;;;;;;;;;;;;;-0.38;100.00;100094.22;5096449;28;20379;-73
2021/01/07 08:04:26;;;;;;;;;;;;;;;-0.26;100.00;100099.84;5096446;28;19971;-73
2021/01/07 08:06:53;;;;;;;;;;;;;;;-0.46;100.00;100095.88;5096128;28;19931;-73
2021/01/07 08:09:20;;;;;;;;;;;;;;;-0.57;100.00;100091.00;5095078;28;19924;-73
2021/01/07 08:11:49;;;;;;;;;;;;;;;-0.62;100.00;100092.00;5095122;28;19924;-73
2021/01/07 08:14:19;;;;;;;;;;;;;;;-0.89;100.00;100075.06;5095736;28;19924;-73
2021/01/07 08:16:46;;;;;;;;;;;;;;;-0.72;100.00;100083.28;5129074;27;19968;-73
2021/01/07 08:19:32;;;;;;;;;;;;;;;-0.50;100.00;100099.59;5094722;28;20022;-73
2021/01/07 08:21:59;;;;;;;;;;;;;;;-0.35;100.00;100096.31;5096084;28;19924;-73
2021/01/07 08:24:26;;;;;;;;;;;;;;;-0.27;100.00;100100.97;5095342;28;19924;-73
2021/01/07 08:27:02;;;;;;;;;;;;;;;-0.29;100.00;100106.78;5095852;28;19931;-72
2021/01/07 08:29:30;;;;;;;;;;;;;;;-0.25;100.00;100109.69;5077332;28;19924;-73
2021/01/07 08:31:59;;;;;;;;;;;;;;;-0.15;100.00;100115.66;5095205;28;19931;-73
2021/01/07 08:34:29;;;;;;;;;;;;;;;-0.14;100.00;100120.00;5095774;28;19938;-73
2021/01/07 08:37:05;;;;;;;;;;;;;;;-0.09;100.00;100121.75;5095746;28;19993;-74
2021/01/07 08:39:35;;;;;;;;;;;;;;;-0.26;100.00;100117.13;5094529;28;19928;-74
2021/01/07 08:42:01;;;;;;;;;;;;;;;-0.05;100.00;100123.50;5095684;28;19924;-73
2021/01/07 08:44:28;;;;;;;;;;;;;;;-0.32;100.00;100112.94;5095232;28;19924;-73
2021/01/07 08:46:55;;;;;;;;;;;;;;;-0.40;100.00;100104.72;5094286;28;19950;-72
2021/01/07 08:49:21;;;;;;;;;;;;;;;-0.29;100.00;100117.78;5094229;28;20487;-73
2021/01/07 08:51:50;;;;;;;;;;;;;;;-0.17;100.00;100123.38;5128343;27;19924;-73
2021/01/07 08:54:17;;;;;;;;;;;;;;;-0.17;100.00;100115.16;5095384;28;19924;-73
2021/01/07 08:56:44;;;;;;;;;;;;;;;0.04;100.00;100120.75;5095240;28;19924;-74
2021/01/07 08:59:17;;;;;;;;;;;;;;;0.08;100.00;100126.41;5094093;28;19985;-73
2021/01/07 09:01:44;;;;;;;;;;;;;;;0.24;100.00;100131.03;5093975;28;19924;-73
2021/01/07 09:04:29;;;;;;;;;;;;;;;0.34;100.00;100133.41;5095402;28;19931;-73
2021/01/07 09:07:15;;;;;;;;;;;;;;;0.31;100.00;100131.31;5094947;28;19932;-73
2021/01/07 09:09:44;;;;;;;;;;;;;;;0.39;100.00;100127.72;5093854;28;19931;-73
2021/01/07 09:12:15;;;;;;;;;;;;;;;0.51;100.00;100130.59;5093330;28;19932;-73
2021/01/07 09:14:45;;;;;;;;;;;;;;;0.58;100.00;100128.09;5093881;28;19928;-73
2021/01/07 09:17:12;;;;;;;;;;;;;;;0.56;100.00;100111.13;5094253;28;19928;-73
2021/01/07 09:19:39;;;;;;;;;;;;;;;0.52;100.00;100106.63;5093696;28;19931;-73
2021/01/07 09:22:06;;;;;;;;;;;;;;;0.62;100.00;100111.75;5109836;28;19947;-73
2021/01/07 09:24:33;;;;;;;;;;;;;;;0.74;100.00;100117.34;5094829;28;19931;-73
2021/01/07 09:27:10;;;;;;;;;;;;;;;0.69;100.00;100109.28;5082381;28;19924;-73
2021/01/07 09:29:37;;;;;;;;;;;;;;;0.68;100.00;100113.97;5089281;28;20335;-73
2021/01/07 09:32:04;;;;;;;;;;;;;;;0.61;100.00;100102.69;5086743;28;19924;-73
2021/01/07 09:34:31;;;;;;;;;;;;;;;0.71;100.00;100105.03;5094572;28;20367;-73
2021/01/07 09:37:09;;;;;;;;;;;;;;;0.80;100.00;100100.31;5081115;28;19928;-73
2021/01/07 09:39:36;;;;;;;;;;;;;;;0.84;100.00;100106.75;5081939;28;19997;-73
2021/01/07 09:42:03;;;;;;;;;;;;;;;0.79;100.00;100103.41;5094133;28;20402;-73
2021/01/07 09:44:30;;;;;;;;;;;;;;;0.87;100.00;100105.25;5091739;28;19924;-73
2021/01/07 10:01:26;;;;;;;;;;;;;;;1.24;100.00;100028.03;5089962;28;19916;-73
2021/01/07 10:03:52;;;;;;;;;;;;;;;1.26;100.00;100031.25;5089109;28;20305;-73
2021/01/07 10:06:19;;;;;;;;;;;;;;;1.49;100.00;100038.00;5071846;28;19928;-73
2021/01/07 10:08:45;;;;;;;;;;;;;;;1.63;100.00;100029.44;5088841;28;19924;-73
2021/01/07 10:11:12;;;;;;;;;;;;;;;1.63;100.00;100030.25;5088882;28;19931;-73
2021/01/07 10:13:39;;;;;;;;;;;;;;;1.62;100.00;100030.59;5077897;28;19925;-73
2021/01/07 10:16:09;;;;;;;;;;;;;;;1.45;100.00;100015.03;5068629;28;19925;-73
2021/01/07 10:18:35;;;;;;;;;;;;;;;1.40;100.00;100018.00;5051657;28;19931;-73
2021/01/07 10:21:04;;;;;;;;;;;;;;;1.50;100.00;100014.03;5051595;28;20015;-73
2021/01/07 10:23:32;;;;;;;;;;;;;;;1.16;100.00;99995.09;5069663;28;19932;-73
2021/01/07 10:25:58;;;;;;;;;;;;;;;1.31;100.00;100003.53;5051544;28;19932;-73
2021/01/07 10:28:29;;;;;;;;;;;;;;;1.32;100.00;99987.78;5065518;28;19932;-73
2021/01/07 10:30:55;;;;;;;;;;;;;;;1.16;100.00;99982.16;5069050;28;19931;-73
2021/01/07 10:33:22;;;;;;;;;;;;;;;1.37;100.00;99993.09;5068057;28;19928;-73
2021/01/07 10:35:49;;;;;;;;;;;;;;;1.17;100.00;99972.72;5069059;28;19925;-73
2021/01/07 10:38:23;;;;;;;;;;;;;;;0.92;100.00;99965.56;5069339;28;19936;-73
2021/01/07 10:40:50;;;;;;;;;;;;;;;0.96;100.00;99976.66;5064506;28;19936;-73
2021/01/07 10:43:21;;;;;;;;;;;;;;;0.85;100.00;99964.50;5068937;28;19924;-73
2021/01/07 10:45:54;;;;;;;;;;;;;;;0.98;100.00;99971.63;5051530;28;20169;-73
2021/01/07 10:48:21;;;;;;;;;;;;;;;1.04;100.00;99984.84;5068096;28;19925;-73
2021/01/07 10:50:49;;;;;;;;;;;;;;;0.83;100.00;99981.34;5046439;28;20306;-73
2021/01/07 10:53:30;;;;;;;;;;;;;;;0.93;100.00;99999.34;5068535;28;20372;-73
2021/01/07 10:56:04;;;;;;;;;;;;;;;0.88;100.00;100002.34;5051076;28;20544;-73
2021/01/07 10:58:38;;;;;;;;;;;;;;;0.92;100.00;100012.34;5067805;28;19925;-73
2021/01/07 11:01:13;;;;;;;;;;;;;;;0.83;100.00;99994.28;5057318;28;19975;-73
2021/01/07 11:03:58;;;;;;;;;;;;;;;0.69;100.00;99997.31;5054064;28;20018;-73
2021/01/07 11:06:29;;;;;;;;;;;;;;;0.66;100.00;99994.41;5050122;28;19924;-73
2021/01/07 11:08:59;;;;;;;;;;;;;;;0.58;100.00;99992.53;5055295;28;19924;-73
2021/01/07 11:11:27;;;;;;;;;;;;;;;0.58;100.00;99993.34;5054270;28;20402;-73
2021/01/07 11:14:07;;;;;;;;;;;;;;;0.64;100.00;100005.75;5054221;28;20189;-72
2021/01/07 11:16:41;;;;;;;;;;;;;;;0.61;100.00;100000.91;5054144;28;19940;-72
2021/01/07 11:19:10;;;;;;;;;;;;;;;0.76;100.00;100016.03;5053799;28;19929;-72
2021/01/07 11:21:45;;;;;;;;;;;;;;;0.86;100.00;100015.63;5037281;28;19953;-72
2021/01/07 11:24:12;;;;;;;;;;;;;;;0.94;100.00;100018.28;5055138;28;20380;-72
2021/01/07 11:26:40;;;;;;;;;;;;;;;1.12;100.00;100036.25;5032690;28;19929;-72
2021/01/07 11:29:07;;;;;;;;;;;;;;;1.14;100.00;100028.47;5054324;28;19964;-71
2021/01/07 11:31:47;;;;;;;;;;;;;;;1.24;100.00;100043.78;5050561;28;20422;-72
2021/01/07 11:34:14;;;;;;;;;;;;;;;1.36;100.00;100050.09;5054315;28;19963;-72
2021/01/07 11:36:52;;;;;;;;;;;;;;;1.31;100.00;100038.50;5055233;28;19925;-72
2021/01/07 11:39:21;;;;;;;;;;;;;;;1.26;100.00;100034.03;5054356;28;19931;-72
2021/01/07 11:42:03;;;;;;;;;;;;;;;1.31;100.00;100025.56;5054574;28;20400;-73
2021/01/07 11:44:29;;;;;;;;;;;;;;;1.29;100.00;100021.50;5033744;28;19929;-73
2021/01/07 11:46:57;;;;;;;;;;;;;;;1.27;100.00;100013.59;5055430;28;19990;-73
2021/01/07 11:49:24;;;;;;;;;;;;;;;1.04;100.00;99990.38;5013432;28;19925;-73
2021/01/07 11:51:51;;;;;;;;;;;;;;;1.05;100.00;99989.22;5053012;28;19928;-74
2021/01/07 11:54:18;;;;;;;;;;;;;;;1.15;100.00;99985.25;5047466;28;19932;-73
2021/01/07 11:56:47;;;;;;;;;;;;;;;1.14;100.00;99989.13;5053677;28;19925;-74
2021/01/07 11:59:15;;;;;;;;;;;;;;;1.04;100.00;99982.09;5054936;28;19928;-75
2021/01/07 12:01:42;;;;;;;;;;;;;;;1.13;100.00;99977.31;5053973;28;19925;-73
2021/01/07 12:04:12;;;;;;;;;;;;;;;1.15;100.00;99972.25;5053778;28;20364;-73
2021/01/07 12:06:44;;;;;;;;;;;;;;;1.19;100.00;99973.22;5053908;28;19929;-74
2021/01/07 12:09:25;;;;;;;;;;;;;;;1.28;100.00;99978.63;5054973;28;19925;-73
2021/01/07 12:11:56;;;;;;;;;;;;;;;1.32;100.00;99977.59;5053598;28;19924;-73
2021/01/07 12:14:25;;;;;;;;;;;;;;;1.33;100.00;99972.91;5003747;28;19928;-74
2021/01/07 12:16:52;;;;;;;;;;;;;;;1.15;100.00;99954.97;5053403;28;19929;-73
2021/01/07 12:19:30;;;;;;;;;;;;;;;1.13;100.00;99949.78;5032907;28;19925;-73
2021/01/07 12:21:59;;;;;;;;;;;;;;;0.99;100.00;99946.53;5049596;28;19932;-73
2021/01/07 12:24:26;;;;;;;;;;;;;;;0.90;100.00;99947.75;5053075;28;19929;-73
2021/01/07 12:26:53;;;;;;;;;;;;;;;0.88;100.00;99942.59;5051136;28;19933;-73
2021/01/07 12:32:25;;;;;;;;;;;;;;;0.87;100.00;99948.44;5048733;28;19976;-74
2021/01/07 12:35:03;;;;;;;;;;;;;;;0.87;100.00;99949.25;5036658;28;20389;-72
2021/01/07 12:37:36;;;;;;;;;;;;;;;0.94;100.00;99960.50;5054513;28;19925;-72
2021/01/07 12:40:11;;;;;;;;;;;;;;;1.01;100.00;99958.00;5048610;28;20364;-72
2021/01/07 12:42:42;;;;;;;;;;;;;;;1.10;100.00;99966.16;5049012;28;19924;-72
2021/01/07 12:45:10;;;;;;;;;;;;;;;1.26;100.00;99970.69;5054207;28;19929;-72
2021/01/07 12:47:37;;;;;;;;;;;;;;;1.33;100.00;99970.16;5051845;28;19931;-73
2021/01/07 12:50:04;;;;;;;;;;;;;;;1.46;100.00;99974.53;5051884;28;19925;-73
2021/01/07 12:52:32;;;;;;;;;;;;;;;1.57;100.00;99979.28;5051048;28;19940;-72
2021/01/07 12:54:59;;;;;;;;;;;;;;;1.55;100.00;99977.97;5030648;28;19928;-73